Terminal Aerodrome Forecast
Issued by NWS Grand Forks, ND

Home | Current Version | Previous Version | Text Only | Print | Product List | Glossary On
Versions: 1 2 3 4 5 6 7 8 9 10 11 12 13 14 15 16 17 18 19 20 21
000
FTUS43 KFGF 252327
TAFFAR
TAF
KFAR 252327Z 2600/2624 01017KT P6SM OVC015
     FM260600 01016G24KT 1SM -SN OVC010
     FM261600 36015G24KT 2SM -SN OVC008
     FM261800 36015G24KT P6SM OVC008
     FM261900 36014G23KT P6SM OVC010=

USA.gov is the U.S. government's official web portal to all federal, state and local government web resources and services.